Terminal Aerodrome Forecast
Issued by NWS

Home | Current Version | Previous Version | Text Only | Print | Product List | Glossary On
Versions: 1 2 3 4 5 6 7 8 9 10 11 12 13 14 15 16 17 18
000
FTUS45 KMSO 272320
TAFSMN
TAF
KSMN 272320Z 2800/2824 00000KT P6SM VCFG SCT005 BKN100
     FM280100 00000KT P6SM VCSH BKN080 OVC100
     FM280500 00000KT 5SM -FZRAPL BR BKN025 OVC050
     FM281000 VRB03KT 4SM BR VCSH OVC015
     FM281800 VRB03KT P6SM OVC050
      AMD LTD TO CLD VIS AND WIND=

USA.gov is the U.S. government's official web portal to all federal, state and local government web resources and services.